Time;durP1;ratioP1;P1;durP2;ratioP2;P2;SDS_P1;SDS_P2;PMS_P1;PMS_P2;Temp;Humidity;BMP_temperature;BMP_pressure;BME280_temperature;BME280_humidity;BME280_pressure;Samples;Min_cycle;Max_cycle;Signal;HPM_P1;HPM_P2
2022/09/10 00:53:44;;;;;;;1.80;1.42;;;15.70;56.00;;;;;;5012793;23;20235;-37
2022/09/10 00:56:15;;;;;;;4.00;1.80;;;15.80;56.00;;;;;;4906944;29;20280;-47
2022/09/10 00:58:48;;;;;;;3.35;1.50;;;15.80;56.10;;;;;;4895835;29;20205;-40
2022/09/10 01:01:20;;;;;;;3.35;1.40;;;15.80;56.10;;;;;;4896035;29;20291;-42
2022/09/10 01:03:52;;;;;;;1.73;1.20;;;15.80;56.10;;;;;;4896152;29;20236;-48
2022/09/10 01:06:22;;;;;;;2.25;1.60;;;15.90;56.10;;;;;;4896153;29;20221;-36
2022/09/10 01:08:55;;;;;;;3.42;1.65;;;15.90;56.10;;;;;;4888633;29;20229;-48
2022/09/10 01:11:43;;;;;;;3.03;1.42;;;15.90;56.10;;;;;;4877481;29;20197;-46
2022/09/10 01:14:31;;;;;;;2.50;1.48;;;15.90;56.10;;;;;;4877275;29;20701;-45
2022/09/10 01:17:10;;;;;;;2.05;1.10;;;15.90;56.10;;;;;;4877180;29;20278;-43
2022/09/10 01:20:15;;;;;;;3.67;1.35;;;15.90;56.20;;;;;;4877530;29;20202;-50
2022/09/10 01:23:10;;;;;;;4.45;1.85;;;15.90;56.30;;;;;;4881074;29;20233;-48
2022/09/10 01:25:55;;;;;;;1.48;1.10;;;16.00;56.40;;;;;;4894616;29;20232;-47
2022/09/10 01:28:35;;;;;;;3.83;1.40;;;16.00;56.40;;;;;;4896005;29;20205;-49
2022/09/10 01:31:11;;;;;;;3.25;1.33;;;16.00;56.40;;;;;;4884153;29;20201;-51
2022/09/10 01:33:47;;;;;;;2.50;1.17;;;16.00;56.40;;;;;;4877211;29;20235;-51
2022/09/10 01:36:21;;;;;;;2.00;1.35;;;16.10;56.50;;;;;;4876830;29;20737;-50
2022/09/10 01:38:53;;;;;;;4.60;1.27;;;16.10;56.50;;;;;;4883358;29;20260;-50
2022/09/10 01:41:28;;;;;;;1.58;1.20;;;16.10;56.60;;;;;;4877047;29;20198;-37
2022/09/10 01:44:08;;;;;;;3.13;1.50;;;16.10;56.70;;;;;;4876775;29;20292;-53
2022/09/10 01:46:47;;;;;;;4.15;1.60;;;16.10;56.80;;;;;;4877164;29;20221;-50
2022/09/10 01:49:29;;;;;;;2.05;1.30;;;16.20;56.90;;;;;;4876594;29;20197;-46
2022/09/10 01:52:11;;;;;;;3.45;1.40;;;16.20;56.90;;;;;;4876889;29;20202;-42
2022/09/10 01:54:55;;;;;;;2.05;1.08;;;16.20;56.90;;;;;;4858270;29;20234;-42
2022/09/10 01:57:37;;;;;;;3.35;1.42;;;16.20;56.70;;;;;;4857975;29;20279;-37
2022/09/10 02:00:12;;;;;;;3.10;1.40;;;16.20;56.70;;;;;;4858296;29;20702;-44
2022/09/10 02:02:49;;;;;;;2.10;1.35;;;16.30;56.80;;;;;;4871861;29;20606;-39
2022/09/10 02:05:22;;;;;;;3.97;1.35;;;16.30;56.80;;;;;;4895504;29;20197;-45
2022/09/10 02:07:56;;;;;;;2.58;1.52;;;16.30;56.80;;;;;;4894748;29;20224;-49
2022/09/10 02:10:27;;;;;;;2.13;1.40;;;16.30;56.80;;;;;;4857884;29;20205;-46
2022/09/10 02:12:58;;;;;;;2.20;1.30;;;16.30;56.80;;;;;;4857162;29;20206;-47
2022/09/10 02:15:31;;;;;;;3.00;1.35;;;16.30;56.70;;;;;;4857531;29;20241;-48
2022/09/10 02:18:03;;;;;;;3.28;1.10;;;16.40;56.70;;;;;;4857456;29;20205;-47
2022/09/10 02:20:33;;;;;;;3.08;1.50;;;16.30;56.50;;;;;;4857595;29;20202;-44
2022/09/10 02:23:06;;;;;;;2.85;1.38;;;16.40;56.80;;;;;;4867431;29;20197;-44
2022/09/10 02:25:38;;;;;;;3.28;1.27;;;16.40;56.80;;;;;;4889922;29;20780;-41
2022/09/10 02:28:09;;;;;;;3.08;1.50;;;16.40;56.80;;;;;;4875984;29;20249;-45
2022/09/10 02:30:41;;;;;;;3.03;1.40;;;16.40;56.60;;;;;;4875999;29;20384;-41
2022/09/10 02:33:15;;;;;;;2.15;1.15;;;16.40;56.70;;;;;;4875724;29;20205;-42
2022/09/10 02:35:46;;;;;;;3.40;1.30;;;16.40;56.60;;;;;;4876094;29;20237;-35
2022/09/10 02:38:17;;;;;;;3.38;1.42;;;16.50;56.70;;;;;;4879728;29;20208;-37
2022/09/10 02:40:50;;;;;;;1.60;1.05;;;16.50;56.60;;;;;;4875681;29;20201;-45
2022/09/10 02:43:20;;;;;;;3.80;1.48;;;16.50;56.60;;;;;;4875383;29;20197;-37
2022/09/10 02:45:56;;;;;;;3.63;1.15;;;16.60;56.70;;;;;;4875925;29;20468;-37
2022/09/10 02:48:27;;;;;;;3.05;1.20;;;16.60;56.90;;;;;;4876006;29;20213;-45
2022/09/10 02:50:58;;;;;;;3.03;1.25;;;16.60;57.00;;;;;;4876019;29;20212;-39
2022/09/10 02:53:29;;;;;;;2.90;1.48;;;16.60;57.00;;;;;;4882637;29;20224;-49
2022/09/10 02:56:01;;;;;;;3.35;1.58;;;16.60;57.00;;;;;;4894418;29;20574;-38
2022/09/10 02:58:32;;;;;;;2.75;1.40;;;16.70;57.00;;;;;;4893955;29;20212;-45
2022/09/10 03:01:11;;;;;;;1.85;1.00;;;16.70;56.90;;;;;;4894228;29;20292;-43
2022/09/10 03:03:42;;;;;;;1.73;1.20;;;16.70;56.80;;;;;;4894180;29;20248;-39
2022/09/10 03:06:13;;;;;;;1.50;1.00;;;16.70;56.80;;;;;;4894272;29;20567;-42
2022/09/10 03:08:44;;;;;;;2.58;1.33;;;16.70;56.70;;;;;;4881986;29;20201;-39
2022/09/10 03:11:15;;;;;;;3.65;1.20;;;16.70;56.60;;;;;;4875867;29;20208;-46
2022/09/10 03:13:46;;;;;;;2.33;1.20;;;16.80;56.70;;;;;;4876602;29;20291;-42
2022/09/10 03:16:22;;;;;;;3.50;1.20;;;16.80;56.70;;;;;;4893800;29;20307;-40
2022/09/10 03:18:53;;;;;;;3.38;1.27;;;16.80;56.70;;;;;;4893187;29;20204;-36
2022/09/10 03:21:25;;;;;;;3.72;1.27;;;16.80;56.80;;;;;;4893540;29;20208;-38
2022/09/10 03:23:56;;;;;;;3.22;1.23;;;16.80;56.80;;;;;;4893326;29;20208;-44
2022/09/10 03:26:27;;;;;;;2.38;1.17;;;16.80;56.80;;;;;;4893972;29;20260;-41
2022/09/10 03:28:58;;;;;;;4.60;1.55;;;16.90;56.90;;;;;;4893801;29;20213;-41
2022/09/10 03:31:30;;;;;;;1.85;1.08;;;16.90;56.90;;;;;;4894168;29;20205;-37
2022/09/10 03:34:01;;;;;;;3.15;1.52;;;16.90;56.90;;;;;;4893625;29;20208;-39
2022/09/10 03:36:32;;;;;;;2.33;1.20;;;16.90;56.80;;;;;;4877326;29;20375;-39
2022/09/10 03:39:03;;;;;;;3.47;1.50;;;16.90;56.80;;;;;;4873247;29;20221;-50
2022/09/10 03:41:33;;;;;;;2.47;1.30;;;16.90;56.80;;;;;;4876091;29;20603;-38
2022/09/10 03:44:04;;;;;;;2.05;1.33;;;17.00;56.90;;;;;;4874709;29;20229;-46
2022/09/10 03:46:37;;;;;;;2.55;1.35;;;17.00;56.90;;;;;;4874285;29;20221;-43
2022/09/10 03:49:08;;;;;;;1.77;1.27;;;17.00;56.90;;;;;;4874768;29;20209;-42
2022/09/10 03:51:40;;;;;;;2.33;1.50;;;17.00;56.90;;;;;;4875093;29;20205;-48
2022/09/10 03:54:12;;;;;;;2.53;1.40;;;17.00;56.80;;;;;;4876601;29;20233;-40
2022/09/10 03:56:43;;;;;;;5.95;1.60;;;17.00;56.90;;;;;;4876413;29;20304;-39
2022/09/10 03:59:14;;;;;;;2.50;1.40;;;17.00;56.90;;;;;;4892770;29;20208;-41
2022/09/10 04:01:47;;;;;;;2.88;1.40;;;17.00;57.40;;;;;;4893170;29;20211;-38
2022/09/10 04:04:17;;;;;;;3.40;1.42;;;17.00;56.80;;;;;;4893033;29;20673;-39
2022/09/10 04:06:48;;;;;;;2.30;1.20;;;17.00;56.80;;;;;;4893590;29;20227;-41
2022/09/10 04:09:19;;;;;;;2.78;1.17;;;17.00;56.70;;;;;;4892512;29;20197;-42
2022/09/10 04:11:50;;;;;;;3.03;1.40;;;17.00;56.70;;;;;;4893586;29;20201;-52
2022/09/10 04:14:21;;;;;;;2.08;1.10;;;17.10;56.70;;;;;;4893108;29;20511;-49
2022/09/10 04:16:54;;;;;;;4.60;1.35;;;17.10;56.60;;;;;;4893357;29;20828;-40
2022/09/10 04:19:26;;;;;;;2.63;1.20;;;17.10;56.60;;;;;;4893233;29;20245;-43
2022/09/10 04:21:57;;;;;;;2.90;1.40;;;17.10;56.50;;;;;;4893168;29;20253;-36
2022/09/10 04:24:27;;;;;;;2.92;1.38;;;17.10;56.40;;;;;;4892969;29;20670;-49
2022/09/10 04:26:58;;;;;;;3.95;1.40;;;17.10;56.40;;;;;;4893267;29;20227;-42
2022/09/10 04:29:29;;;;;;;2.10;1.10;;;17.20;56.40;;;;;;4893783;29;20871;-49
2022/09/10 04:32:02;;;;;;;1.65;1.15;;;17.20;56.30;;;;;;4893562;29;20717;-42
2022/09/10 04:34:33;;;;;;;3.90;1.23;;;17.20;56.30;;;;;;4893432;29;20233;-36
2022/09/10 04:37:04;;;;;;;4.00;1.20;;;17.20;56.30;;;;;;4896714;29;20552;-39
2022/09/10 04:39:34;;;;;;;3.33;1.55;;;17.20;56.30;;;;;;4894300;29;20239;-48
2022/09/10 04:42:05;;;;;;;4.03;1.50;;;17.20;56.30;;;;;;4896548;29;20201;-38
2022/09/10 04:44:36;;;;;;;2.78;1.75;;;17.30;56.30;;;;;;4890102;29;20205;-41
2022/09/10 04:47:09;;;;;;;2.90;1.58;;;17.20;56.30;;;;;;4877121;29;20232;-40
2022/09/10 04:49:39;;;;;;;4.10;2.70;;;17.20;56.30;;;;;;4878031;29;20228;-54
2022/09/10 04:52:10;;;;;;;3.80;2.40;;;17.20;56.30;;;;;;4896490;23;20249;-35
2022/09/10 04:54:41;;;;;;;3.97;2.60;;;17.30;56.30;;;;;;4934708;29;20419;-46
2022/09/10 04:57:12;;;;;;;4.10;2.40;;;17.30;56.30;;;;;;4916285;29;20221;-36
2022/09/10 04:59:42;;;;;;;3.47;2.20;;;17.30;55.70;;;;;;4897715;29;20197;-44
2022/09/10 05:02:15;;;;;;;5.68;2.80;;;17.30;56.20;;;;;;4896911;29;20197;-37
2022/09/10 05:04:46;;;;;;;4.47;2.38;;;17.30;56.20;;;;;;4897500;29;20193;-38
2022/09/10 05:07:16;;;;;;;4.50;2.92;;;17.30;56.20;;;;;;4896156;29;20216;-39
2022/09/10 05:09:47;;;;;;;3.17;2.60;;;17.30;56.20;;;;;;4896147;29;20200;-44
2022/09/10 05:12:18;;;;;;;4.13;2.50;;;17.30;56.10;;;;;;4896247;29;20205;-36
2022/09/10 05:14:48;;;;;;;4.25;2.35;;;17.30;56.10;;;;;;4896705;29;20232;-36
2022/09/10 05:17:21;;;;;;;4.10;2.20;;;17.30;56.10;;;;;;4897079;29;20212;-35
2022/09/10 05:19:52;;;;;;;3.25;2.25;;;17.30;56.10;;;;;;4896716;29;20331;-35
2022/09/10 05:22:22;;;;;;;2.83;2.35;;;17.30;56.10;;;;;;4896711;29;20689;-37
2022/09/10 05:24:54;;;;;;;5.90;2.53;;;17.30;56.10;;;;;;4895403;29;20205;-35
2022/09/10 05:27:24;;;;;;;7.22;4.07;;;17.30;56.20;;;;;;4896285;29;20217;-35
2022/09/10 05:29:56;;;;;;;17.27;10.52;;;17.40;56.30;;;;;;4896821;29;20205;-35
2022/09/10 05:32:30;;;;;;;11.95;10.05;;;17.30;56.20;;;;;;4897265;29;20193;-41
2022/09/10 05:35:00;;;;;;;11.23;8.98;;;17.30;56.80;;;;;;4897427;29;20224;-36
2022/09/10 05:37:31;;;;;;;8.65;5.90;;;17.40;56.80;;;;;;4900291;29;20212;-38
2022/09/10 05:40:02;;;;;;;10.02;5.22;;;17.40;56.60;;;;;;4898862;29;20212;-36
2022/09/10 05:42:34;;;;;;;9.07;4.63;;;17.40;56.60;;;;;;4896611;29;20280;-42
2022/09/10 05:45:04;;;;;;;6.50;3.80;;;17.40;56.50;;;;;;4896134;29;20209;-35
2022/09/10 05:47:37;;;;;;;6.60;3.40;;;17.40;56.60;;;;;;4893676;29;20217;-37
2022/09/10 05:50:08;;;;;;;9.60;4.32;;;17.40;56.50;;;;;;4896438;29;20236;-36
2022/09/10 05:52:39;;;;;;;9.55;4.47;;;17.40;56.50;;;;;;4913143;23;20239;-36
2022/09/10 05:55:11;;;;;;;8.40;5.15;;;17.30;56.40;;;;;;4915047;29;20335;-39
2022/09/10 05:57:41;;;;;;;11.02;6.68;;;17.30;56.40;;;;;;4895943;29;20225;-58
2022/09/10 06:00:15;;;;;;;11.13;8.88;;;17.30;56.30;;;;;;4895344;29;20204;-45
2022/09/10 06:02:47;;;;;;;13.55;9.55;;;17.30;56.20;;;;;;4896119;29;20669;-44
2022/09/10 06:05:20;;;;;;;12.95;9.10;;;17.30;56.10;;;;;;4895944;29;20197;-54
2022/09/10 06:07:51;;;;;;;10.75;7.18;;;17.20;56.10;;;;;;4896318;29;20657;-48
2022/09/10 06:10:21;;;;;;;8.85;6.57;;;17.10;55.90;;;;;;4896059;29;20201;-36
2022/09/10 06:12:53;;;;;;;10.13;5.85;;;17.10;55.90;;;;;;4896081;29;20212;-44
2022/09/10 06:15:24;;;;;;;7.65;4.93;;;17.00;55.90;;;;;;4895092;29;20696;-56
2022/09/10 06:17:56;;;;;;;8.45;4.68;;;16.90;56.00;;;;;;4895941;29;20205;-48
2022/09/10 06:20:27;;;;;;;3.92;3.03;;;16.90;56.00;;;;;;4895301;29;20192;-41
2022/09/10 06:22:58;;;;;;;7.18;3.75;;;16.80;56.00;;;;;;4896191;29;20205;-44
2022/09/10 06:25:29;;;;;;;5.15;3.20;;;16.80;56.00;;;;;;4895545;29;20661;-48
2022/09/10 06:28:00;;;;;;;3.40;2.85;;;16.70;56.00;;;;;;4895686;29;20292;-41
2022/09/10 06:30:31;;;;;;;5.22;3.13;;;16.70;56.10;;;;;;4895309;29;20189;-45
2022/09/10 06:33:04;;;;;;;4.28;3.08;;;16.60;56.30;;;;;;4894999;29;20661;-37
2022/09/10 06:35:34;;;;;;;4.35;3.70;;;16.60;56.60;;;;;;4880274;29;20228;-40
2022/09/10 06:38:05;;;;;;;4.20;3.08;;;16.60;56.80;;;;;;4895829;29;20212;-45
2022/09/10 06:40:36;;;;;;;4.47;2.92;;;16.70;56.90;;;;;;4896042;29;20201;-43
2022/09/10 06:43:07;;;;;;;5.45;3.60;;;16.60;56.80;;;;;;4895318;29;20674;-41
2022/09/10 06:45:42;;;;;;;5.13;3.38;;;16.60;56.90;;;;;;4895027;29;20736;-41
2022/09/10 06:48:17;;;;;;;3.60;2.92;;;16.70;56.90;;;;;;4894654;29;20204;-47
2022/09/10 06:50:54;;;;;;;5.57;3.03;;;16.70;56.90;;;;;;4895349;29;20214;-46
2022/09/10 06:53:26;;;;;;;4.25;3.28;;;16.70;56.80;;;;;;4895575;29;20248;-52
2022/09/10 06:55:57;;;;;;;4.65;3.05;;;16.70;56.80;;;;;;4894703;29;20244;-38
2022/09/10 06:58:28;;;;;;;5.57;3.00;;;16.70;56.80;;;;;;4893680;29;20209;-38
2022/09/10 07:00:58;;;;;;;3.22;2.92;;;16.70;56.70;;;;;;4893765;29;20205;-47
2022/09/10 07:03:31;;;;;;;5.85;3.30;;;16.70;56.70;;;;;;4893668;29;20201;-48
2022/09/10 07:06:06;;;;;;;3.85;2.70;;;16.70;56.70;;;;;;4893504;29;20224;-39
2022/09/10 07:08:36;;;;;;;4.70;2.95;;;16.70;56.60;;;;;;4893612;29;20209;-40
2022/09/10 07:11:08;;;;;;;5.50;3.20;;;16.70;56.60;;;;;;4893795;29;20476;-37
2022/09/10 07:13:39;;;;;;;5.13;3.10;;;16.70;56.60;;;;;;4893493;29;20205;-41
2022/09/10 07:16:10;;;;;;;3.22;2.92;;;16.70;56.60;;;;;;4893277;29;20232;-36
2022/09/10 07:18:42;;;;;;;4.40;3.40;;;16.70;56.60;;;;;;4893362;29;20208;-38
2022/09/10 07:21:14;;;;;;;4.45;3.20;;;16.70;56.60;;;;;;4893365;29;20565;-40
2022/09/10 07:23:47;;;;;;;4.00;2.92;;;16.70;56.50;;;;;;4893362;29;20211;-43
2022/09/10 07:26:19;;;;;;;5.32;3.45;;;16.60;56.40;;;;;;4893619;29;20288;-47
2022/09/10 07:28:51;;;;;;;5.25;3.47;;;16.70;56.40;;;;;;4893674;29;20208;-36
2022/09/10 07:31:23;;;;;;;5.78;3.28;;;16.60;56.30;;;;;;4893741;29;20201;-49
2022/09/10 07:33:56;;;;;;;4.90;3.40;;;16.70;56.30;;;;;;4900446;29;20197;-46
2022/09/10 07:36:27;;;;;;;5.07;3.78;;;16.70;56.20;;;;;;4912467;29;20228;-43
2022/09/10 07:39:00;;;;;;;5.60;3.50;;;16.70;56.20;;;;;;4895230;29;20909;-46
2022/09/10 07:41:31;;;;;;;4.07;3.40;;;16.60;56.10;;;;;;4893411;29;20232;-39
2022/09/10 07:44:02;;;;;;;3.40;2.97;;;16.60;56.10;;;;;;4895620;29;20197;-48
2022/09/10 07:46:32;;;;;;;4.93;3.40;;;16.60;56.00;;;;;;4893886;29;20227;-35
2022/09/10 07:49:05;;;;;;;5.60;3.95;;;16.60;56.10;;;;;;4894090;29;20208;-50
2022/09/10 07:51:37;;;;;;;4.35;3.55;;;16.60;56.10;;;;;;4893696;29;20200;-41
2022/09/10 07:54:08;;;;;;;3.80;3.40;;;16.60;56.10;;;;;;4893886;29;20208;-37
2022/09/10 07:56:38;;;;;;;4.13;3.42;;;16.50;56.10;;;;;;4893682;29;20232;-49
2022/09/10 07:59:09;;;;;;;5.30;3.88;;;16.50;56.10;;;;;;4893625;29;20201;-45
2022/09/10 08:01:40;;;;;;;4.13;3.45;;;16.50;56.10;;;;;;4893800;29;20205;-49
2022/09/10 08:04:13;;;;;;;4.20;3.28;;;16.50;56.10;;;;;;4893465;29;20201;-41
2022/09/10 08:06:44;;;;;;;4.75;3.60;;;16.50;56.10;;;;;;4893562;29;20221;-36
2022/09/10 08:09:15;;;;;;;4.00;3.47;;;16.50;56.10;;;;;;4893544;29;20204;-44
2022/09/10 08:11:45;;;;;;;4.32;3.50;;;16.50;56.10;;;;;;4896802;29;20264;-40
2022/09/10 08:14:17;;;;;;;4.20;3.30;;;16.50;56.10;;;;;;4896788;29;20587;-45
2022/09/10 08:16:47;;;;;;;3.92;3.53;;;16.50;56.00;;;;;;4897249;29;20319;-38
2022/09/10 08:19:20;;;;;;;3.63;3.28;;;16.50;56.10;;;;;;4897274;29;20205;-39
2022/09/10 08:21:51;;;;;;;4.05;3.65;;;16.50;56.10;;;;;;4896970;29;20196;-48
2022/09/10 08:24:22;;;;;;;3.85;3.42;;;16.40;56.10;;;;;;4896819;29;20209;-42
2022/09/10 08:26:53;;;;;;;4.35;3.42;;;16.40;56.10;;;;;;4896577;29;20261;-46
2022/09/10 08:29:24;;;;;;;5.43;3.80;;;16.30;56.50;;;;;;4896186;29;20423;-45
2022/09/10 08:31:54;;;;;;;4.38;3.58;;;16.30;56.70;;;;;;4896492;29;20205;-47
2022/09/10 08:34:28;;;;;;;4.38;3.85;;;16.30;56.20;;;;;;4907369;29;20200;-39
2022/09/10 08:36:59;;;;;;;4.75;3.67;;;16.30;56.20;;;;;;4915139;29;20303;-38
2022/09/10 08:39:29;;;;;;;4.28;3.40;;;16.30;56.20;;;;;;4897841;29;20204;-46
2022/09/10 08:42:02;;;;;;;5.28;4.10;;;16.30;56.20;;;;;;4896545;29;20272;-36
2022/09/10 08:44:38;;;;;;;4.30;3.85;;;16.30;56.20;;;;;;4895640;29;20212;-42
2022/09/10 08:47:26;;;;;;;4.15;3.65;;;16.30;56.20;;;;;;4895726;29;20231;-39
2022/09/10 08:50:02;;;;;;;5.40;4.05;;;16.30;56.20;;;;;;4895446;29;20193;-35
2022/09/10 08:52:39;;;;;;;4.40;3.97;;;16.20;56.10;;;;;;4896483;29;20208;-40
2022/09/10 08:55:21;;;;;;;4.72;4.10;;;16.20;56.10;;;;;;4896761;29;20687;-44
2022/09/10 08:57:55;;;;;;;5.45;4.03;;;16.20;56.20;;;;;;4896231;29;20204;-46
2022/09/10 09:00:28;;;;;;;5.18;4.05;;;16.10;56.10;;;;;;4896374;29;20204;-41
2022/09/10 09:03:03;;;;;;;4.90;3.90;;;16.10;56.20;;;;;;4896435;29;20201;-46
2022/09/10 09:05:46;;;;;;;4.32;3.55;;;16.10;56.30;;;;;;4896054;29;20555;-42
2022/09/10 09:08:20;;;;;;;5.55;4.10;;;16.10;56.30;;;;;;4896041;29;20201;-36
2022/09/10 09:10:56;;;;;;;5.05;4.00;;;16.10;56.30;;;;;;4896231;29;20200;-41
2022/09/10 09:13:40;;;;;;;5.03;4.28;;;16.10;56.30;;;;;;4895964;29;20208;-46
2022/09/10 09:16:25;;;;;;;6.65;4.35;;;16.00;56.20;;;;;;4896034;29;20232;-40
2022/09/10 09:19:09;;;;;;;5.78;4.43;;;16.00;56.20;;;;;;4895843;29;20219;-41
2022/09/10 09:21:53;;;;;;;5.78;4.00;;;16.00;56.20;;;;;;4896132;29;20209;-40
2022/09/10 09:24:32;;;;;;;5.78;4.78;;;16.00;56.20;;;;;;4895797;29;20245;-36
2022/09/10 09:27:08;;;;;;;6.22;4.72;;;15.90;56.20;;;;;;4895760;29;20689;-43
2022/09/10 09:29:46;;;;;;;7.05;4.80;;;15.90;56.50;;;;;;4890994;29;20204;-43
2022/09/10 09:32:19;;;;;;;6.97;4.93;;;15.90;57.90;;;;;;4894250;29;20197;-40
2022/09/10 09:34:53;;;;;;;6.63;4.65;;;16.00;58.40;;;;;;4907427;29;20192;-46
2022/09/10 09:37:29;;;;;;;7.63;5.25;;;16.00;58.20;;;;;;4896109;29;20579;-52
2022/09/10 09:40:09;;;;;;;6.18;4.85;;;16.00;58.10;;;;;;4895668;29;20196;-47
2022/09/10 09:42:53;;;;;;;6.40;4.80;;;16.00;57.90;;;;;;4883447;29;20197;-52
2022/09/10 09:45:29;;;;;;;5.20;4.38;;;16.00;57.80;;;;;;4895702;29;20661;-47
2022/09/10 09:48:01;;;;;;;5.78;4.38;;;16.00;57.60;;;;;;4895506;29;20213;-46
2022/09/10 09:50:35;;;;;;;5.88;4.85;;;16.00;57.50;;;;;;4896560;29;20688;-47
2022/09/10 09:53:07;;;;;;;6.28;4.35;;;15.90;57.40;;;;;;4896711;29;20216;-51
2022/09/10 09:55:41;;;;;;;5.75;4.07;;;15.90;57.30;;;;;;4895807;29;20221;-53
2022/09/10 09:58:33;;;;;;;5.43;4.40;;;15.90;57.30;;;;;;4896464;29;20205;-50
2022/09/10 10:01:18;;;;;;;6.03;4.38;;;15.80;57.90;;;;;;4896463;29;20200;-49
2022/09/10 10:03:57;;;;;;;5.97;4.72;;;15.80;57.20;;;;;;4896704;29;20597;-44
2022/09/10 10:06:31;;;;;;;5.32;4.13;;;15.80;57.20;;;;;;4895691;29;20243;-44
2022/09/10 10:09:07;;;;;;;5.45;4.53;;;15.70;57.10;;;;;;4895508;29;20287;-44
2022/09/10 10:11:53;;;;;;;6.07;4.65;;;15.70;57.10;;;;;;4895906;29;20251;-46
2022/09/10 10:14:48;;;;;;;8.60;4.45;;;15.70;57.10;;;;;;4895915;29;20224;-44
2022/09/10 10:17:37;;;;;;;4.50;3.97;;;15.70;57.10;;;;;;4895353;29;20723;-43
2022/09/10 10:20:12;;;;;;;6.07;4.18;;;15.60;56.90;;;;;;4895689;29;20193;-48
2022/09/10 10:22:44;;;;;;;5.03;3.92;;;15.60;56.90;;;;;;4895489;29;20201;-44
2022/09/10 10:25:40;;;;;;;4.85;4.00;;;15.60;56.90;;;;;;4895861;29;20193;-44
2022/09/10 10:28:19;;;;;;;5.47;4.10;;;15.60;56.90;;;;;;4895233;29;20208;-50
2022/09/10 10:30:55;;;;;;;5.65;3.95;;;15.50;56.90;;;;;;4895614;29;20205;-44
2022/09/10 10:33:30;;;;;;;5.88;3.67;;;15.50;56.90;;;;;;4906631;29;20650;-47
2022/09/10 10:36:10;;;;;;;5.38;4.07;;;15.50;56.90;;;;;;4904462;29;20227;-41
2022/09/10 10:38:43;;;;;;;3.50;3.13;;;15.50;56.90;;;;;;4908948;29;20239;-40
2022/09/10 10:41:43;;;;;;;6.75;3.70;;;15.50;56.90;;;;;;4894739;29;20197;-44
2022/09/10 10:44:36;;;;;;;4.25;3.85;;;15.40;56.80;;;;;;4895545;29;20199;-45
2022/09/10 10:47:29;;;;;;;4.05;3.50;;;15.40;56.80;;;;;;4895653;29;20231;-46
2022/09/10 10:50:07;;;;;;;4.32;3.90;;;15.40;56.80;;;;;;4895012;29;20201;-41
2022/09/10 10:52:51;;;;;;;4.50;3.88;;;15.40;56.70;;;;;;4895937;29;20200;-44
2022/09/10 10:55:25;;;;;;;6.25;4.10;;;15.40;56.70;;;;;;4894510;29;20196;-43
2022/09/10 10:58:25;;;;;;;4.32;3.60;;;15.40;56.70;;;;;;4894709;29;20232;-45
2022/09/10 11:01:03;;;;;;;5.70;3.85;;;15.30;56.70;;;;;;4894874;29;20212;-54
2022/09/10 11:03:41;;;;;;;4.10;3.70;;;15.30;56.70;;;;;;4895205;29;20205;-46
2022/09/10 11:06:15;;;;;;;5.03;3.85;;;15.30;56.70;;;;;;4894790;29;20217;-45
2022/09/10 11:08:49;;;;;;;3.88;3.25;;;15.30;56.70;;;;;;4895775;29;20261;-44
2022/09/10 11:11:24;;;;;;;3.72;3.40;;;15.30;56.70;;;;;;4895440;29;20205;-40
2022/09/10 11:14:01;;;;;;;3.70;3.35;;;15.30;56.70;;;;;;4894671;29;20211;-37
2022/09/10 11:16:37;;;;;;;3.90;3.50;;;15.20;56.70;;;;;;4895268;29;20227;-48
2022/09/10 11:19:15;;;;;;;4.32;3.35;;;15.20;56.70;;;;;;4894457;29;20207;-43
2022/09/10 11:21:50;;;;;;;3.83;3.35;;;15.20;56.60;;;;;;4895140;29;20204;-39
2022/09/10 11:24:25;;;;;;;3.58;3.22;;;15.20;56.60;;;;;;4894170;29;20264;-41
2022/09/10 11:27:04;;;;;;;4.35;3.47;;;15.20;56.60;;;;;;4893982;29;20216;-49
2022/09/10 11:29:42;;;;;;;4.82;3.65;;;15.20;56.60;;;;;;4893933;29;20216;-37
2022/09/10 11:32:20;;;;;;;4.57;3.28;;;15.20;56.60;;;;;;4897358;29;20197;-44
2022/09/10 11:35:02;;;;;;;5.53;3.78;;;15.10;56.50;;;;;;4908220;29;20207;-48
2022/09/10 11:37:52;;;;;;;4.63;3.40;;;15.10;56.50;;;;;;4894810;29;20228;-47
2022/09/10 11:40:31;;;;;;;3.60;3.30;;;15.10;56.50;;;;;;4894655;29;20207;-37
2022/09/10 11:43:07;;;;;;;4.18;3.40;;;15.10;56.60;;;;;;4894497;29;20207;-40
2022/09/10 11:45:48;;;;;;;4.00;3.33;;;15.10;56.60;;;;;;4895454;29;20658;-37
2022/09/10 11:48:23;;;;;;;3.10;2.80;;;15.00;56.50;;;;;;4898324;29;20211;-52
2022/09/10 11:50:57;;;;;;;3.35;2.95;;;15.00;56.50;;;;;;4897944;29;20196;-53
2022/09/10 11:53:29;;;;;;;4.65;3.30;;;15.00;57.20;;;;;;4918491;23;20614;-36
2022/09/10 11:56:30;;;;;;;3.38;3.05;;;15.00;56.50;;;;;;4906243;29;20221;-35
2022/09/10 11:59:17;;;;;;;3.88;3.28;;;15.00;56.50;;;;;;4878686;29;20204;-35
2022/09/10 12:02:18;;;;;;;3.83;3.28;;;15.00;56.50;;;;;;4880199;29;20207;-35
2022/09/10 12:04:57;;;;;;;3.22;2.92;;;15.00;56.50;;;;;;4879840;29;20209;-35
2022/09/10 12:07:43;;;;;;;4.00;3.33;;;15.00;56.40;;;;;;4879504;29;20216;-34
2022/09/10 12:10:21;;;;;;;3.58;3.25;;;14.90;56.40;;;;;;4879324;29;20233;-34
2022/09/10 12:12:52;;;;;;;3.88;3.25;;;14.90;56.40;;;;;;4879112;29;20260;-35
2022/09/10 12:15:24;;;;;;;3.88;3.40;;;14.90;56.40;;;;;;4879428;29;20300;-35
2022/09/10 12:18:00;;;;;;;4.65;3.40;;;14.90;56.50;;;;;;4860253;29;20245;-35
2022/09/10 12:20:33;;;;;;;3.83;3.30;;;14.80;56.50;;;;;;4860143;29;20262;-36
2022/09/10 12:23:04;;;;;;;4.18;3.42;;;14.80;56.50;;;;;;4879076;29;20571;-39
2022/09/10 12:25:35;;;;;;;4.53;3.42;;;14.80;56.50;;;;;;4878412;29;20865;-39
2022/09/10 12:28:07;;;;;;;3.25;2.95;;;14.80;56.40;;;;;;4878991;29;20228;-43
2022/09/10 12:31:02;;;;;;;3.63;3.17;;;14.90;56.50;;;;;;4878824;29;20202;-36
2022/09/10 12:34:11;;;;;;;3.42;3.13;;;14.80;56.40;;;;;;4882458;29;20201;-36
2022/09/10 12:37:19;;;;;;;4.22;3.40;;;14.90;56.40;;;;;;4898005;29;20307;-35
2022/09/10 12:40:06;;;;;;;3.22;2.92;;;14.90;56.30;;;;;;4883548;29;20955;-34
2022/09/10 12:42:37;;;;;;;4.43;3.22;;;14.80;56.30;;;;;;4878007;29;20209;-34
2022/09/10 12:45:10;;;;;;;4.22;3.08;;;14.80;56.30;;;;;;4877965;29;20567;-35
2022/09/10 12:47:57;;;;;;;3.40;3.05;;;14.80;56.40;;;;;;4876491;29;20247;-34
2022/09/10 12:50:45;;;;;;;3.67;3.20;;;14.80;56.40;;;;;;4885057;29;20205;-40
2022/09/10 12:53:53;;;;;;;3.67;2.90;;;14.80;56.40;;;;;;4924088;23;20658;-36
2022/09/10 12:57:00;;;;;;;3.97;2.75;;;14.80;56.40;;;;;;4918878;29;20227;-40
2022/09/10 13:00:03;;;;;;;3.58;3.22;;;14.70;56.40;;;;;;4915057;29;20240;-41
2022/09/10 13:02:36;;;;;;;3.65;3.17;;;14.80;56.30;;;;;;4898708;29;20209;-36
2022/09/10 13:05:20;;;;;;;3.28;2.97;;;14.80;56.30;;;;;;4914095;29;20627;-45
2022/09/10 13:08:13;;;;;;;3.35;2.97;;;14.80;56.30;;;;;;4915372;29;20200;-39
2022/09/10 13:10:47;;;;;;;3.78;3.13;;;14.80;56.30;;;;;;4876899;29;20659;-42
2022/09/10 13:13:35;;;;;;;3.38;2.80;;;14.80;56.30;;;;;;4877150;29;20211;-41
2022/09/10 13:16:07;;;;;;;4.00;3.05;;;14.80;56.30;;;;;;4876426;29;20217;-40
2022/09/10 13:18:40;;;;;;;3.45;2.70;;;14.80;56.30;;;;;;4877569;29;20717;-44
2022/09/10 13:21:46;;;;;;;3.05;2.72;;;14.70;56.20;;;;;;4901232;29;20288;-37
2022/09/10 13:24:38;;;;;;;3.78;2.75;;;14.70;56.20;;;;;;4914935;29;20736;-48
2022/09/10 13:27:23;;;;;;;2.90;2.60;;;14.70;56.20;;;;;;4914679;29;20619;-44
2022/09/10 13:29:57;;;;;;;2.78;2.50;;;14.70;56.20;;;;;;4905553;29;20217;-40
2022/09/10 13:32:34;;;;;;;3.65;2.75;;;14.70;56.20;;;;;;4877201;29;20201;-36
2022/09/10 13:35:35;;;;;;;5.20;3.00;;;14.70;56.20;;;;;;4908181;29;20467;-54
2022/09/10 13:38:39;;;;;;;4.18;2.72;;;14.70;56.20;;;;;;4914083;29;20579;-50
2022/09/10 13:41:42;;;;;;;4.45;2.78;;;14.70;56.20;;;;;;4895720;29;20204;-45
2022/09/10 13:44:26;;;;;;;2.85;2.55;;;14.70;56.10;;;;;;4895455;29;20200;-40
2022/09/10 13:47:00;;;;;;;3.58;2.60;;;14.70;56.10;;;;;;4894837;29;20421;-41
2022/09/10 13:49:39;;;;;;;2.75;2.53;;;14.70;56.10;;;;;;4894641;29;20646;-50
2022/09/10 13:52:18;;;;;;;2.80;2.60;;;14.70;56.10;;;;;;4913020;29;20196;-47
2022/09/10 13:54:53;;;;;;;3.55;2.92;;;14.70;56.20;;;;;;4914353;29;20258;-45
2022/09/10 13:57:29;;;;;;;3.90;2.65;;;14.70;56.20;;;;;;4914120;29;20524;-38
2022/09/10 14:00:07;;;;;;;3.88;2.78;;;14.60;56.20;;;;;;4913985;29;20195;-46
2022/09/10 14:02:46;;;;;;;4.38;3.17;;;14.60;56.10;;;;;;4914461;29;20200;-43
2022/09/10 14:05:34;;;;;;;3.53;2.90;;;14.70;56.20;;;;;;4913379;29;20655;-43
2022/09/10 14:08:12;;;;;;;5.00;3.60;;;14.60;56.10;;;;;;4912318;29;20276;-46
2022/09/10 14:10:59;;;;;;;4.65;3.10;;;14.70;56.10;;;;;;4894687;29;20211;-38
2022/09/10 14:13:35;;;;;;;3.85;3.20;;;14.60;56.10;;;;;;4894947;29;20201;-38
2022/09/10 14:16:09;;;;;;;3.22;2.92;;;14.70;56.10;;;;;;4894583;29;20232;-48
2022/09/10 14:18:47;;;;;;;4.10;3.30;;;14.70;56.10;;;;;;4894447;29;20221;-49
2022/09/10 14:21:25;;;;;;;4.40;3.30;;;14.60;56.00;;;;;;4904499;29;20259;-44
2022/09/10 14:23:59;;;;;;;3.80;2.92;;;14.60;56.00;;;;;;4913748;29;20240;-42